Time;durP1;ratioP1;P1;durP2;ratioP2;P2;SDS_P1;SDS_P2;PMS_P1;PMS_P2;Temp;Humidity;BMP_temperature;BMP_pressure;BME280_temperature;BME280_humidity;BME280_pressure;Samples;Min_cycle;Max_cycle;Signal;HPM_P1;HPM_P2
2021/05/30 19:18:54;;;;;;;4.70;2.40;;;19.40;83.20;;;;;;5156052;27;1182557;-83
2021/05/30 19:21:20;;;;;;;3.40;1.88;;;19.60;81.90;;;;;;5171962;27;20050;-84
2021/05/30 19:23:46;;;;;;;5.22;2.15;;;19.70;83.80;;;;;;5135595;27;20051;-79
2021/05/30 19:26:12;;;;;;;5.45;2.50;;;19.70;82.60;;;;;;5150151;27;20527;-83
2021/05/30 19:28:37;;;;;;;5.53;2.80;;;19.40;85.10;;;;;;5131015;27;20081;-84
2021/05/30 19:31:04;;;;;;;5.47;2.38;;;19.30;86.40;;;;;;5133091;27;20406;-82
2021/05/30 19:33:30;;;;;;;5.68;2.45;;;20.20;87.90;;;;;;5131854;27;20518;-83
2021/05/30 19:35:56;;;;;;;5.22;2.45;;;19.00;89.50;;;;;;5131658;27;20051;-83
2021/05/30 19:38:22;;;;;;;4.43;2.53;;;18.90;91.10;;;;;;5131153;27;20043;-82
2021/05/30 19:40:47;;;;;;;5.80;2.70;;;18.70;92.10;;;;;;5132447;27;20039;-83
2021/05/30 19:43:13;;;;;;;5.13;2.63;;;18.60;92.10;;;;;;5132217;27;20042;-83
2021/05/30 19:45:39;;;;;;;5.40;2.47;;;18.40;92.50;;;;;;5133042;27;20038;-83
2021/05/30 19:48:05;;;;;;;4.90;2.50;;;18.20;93.00;;;;;;5133153;27;20158;-83
2021/05/30 19:50:32;;;;;;;6.40;2.65;;;18.00;93.90;;;;;;5133191;27;20049;-83
2021/05/30 19:52:58;;;;;;;7.00;2.55;;;17.80;94.90;;;;;;5133835;27;20038;-82
2021/05/30 19:55:24;;;;;;;6.00;2.55;;;17.60;95.40;;;;;;5134706;27;20053;-83
2021/05/30 19:57:50;;;;;;;5.43;2.90;;;17.40;96.20;;;;;;5133370;27;20051;-84
2021/05/30 20:00:19;;;;;;;4.25;2.50;;;17.30;96.30;;;;;;5133759;27;20092;-82
2021/05/30 20:02:45;;;;;;;4.93;2.53;;;17.20;96.80;;;;;;5134388;27;20039;-83
2021/05/30 20:05:11;;;;;;;4.68;2.88;;;17.10;97.30;;;;;;5135387;27;20035;-84
2021/05/30 20:07:37;;;;;;;8.38;3.10;;;16.90;97.80;;;;;;5134664;27;20043;-83
2021/05/30 20:10:13;;;;;;;5.22;2.78;;;16.70;98.60;;;;;;5135518;27;20065;-83
2021/05/30 20:12:39;;;;;;;7.13;2.83;;;16.60;97.50;;;;;;5135765;27;20070;-84
2021/05/30 20:15:06;;;;;;;4.50;2.58;;;16.50;95.60;;;;;;5137048;27;20030;-83
2021/05/30 20:17:31;;;;;;;6.13;2.42;;;16.40;94.60;;;;;;5136222;27;20047;-82
2021/05/30 20:19:57;;;;;;;4.68;2.10;;;16.40;97.30;;;;;;5136449;27;20039;-83
2021/05/30 20:22:24;;;;;;;5.13;2.90;;;16.40;95.90;;;;;;5125993;28;20139;-84
2021/05/30 20:24:53;;;;;;;3.97;2.45;;;16.30;98.00;;;;;;5133165;27;20035;-83
2021/05/30 20:27:25;;;;;;;5.03;2.67;;;16.20;99.10;;;;;;5120252;27;20570;-83
2021/05/30 20:29:51;;;;;;;4.20;2.78;;;16.10;99.90;;;;;;5125614;27;20035;-83
2021/05/30 20:32:17;;;;;;;5.85;2.95;;;16.00;99.90;;;;;;5123245;27;20049;-82
2021/05/30 20:34:44;;;;;;;5.00;2.60;;;15.90;99.90;;;;;;5124254;27;20078;-83
2021/05/30 20:37:09;;;;;;;6.45;3.03;;;15.80;99.90;;;;;;5124226;27;20036;-83
2021/05/30 20:39:35;;;;;;;9.00;2.95;;;15.80;99.90;;;;;;5124822;27;20073;-82
2021/05/30 20:42:01;;;;;;;4.88;2.90;;;15.70;99.90;;;;;;5125066;27;20050;-83
2021/05/30 20:44:30;;;;;;;6.35;2.90;;;15.60;99.90;;;;;;5123866;27;20039;-82
2021/05/30 20:46:56;;;;;;;10.15;3.30;;;16.10;99.90;;;;;;5124708;27;20071;-83
2021/05/30 20:49:22;;;;;;;4.63;2.83;;;15.30;99.90;;;;;;5123829;27;20042;-80
2021/05/30 20:51:48;;;;;;;4.82;3.00;;;15.20;99.90;;;;;;5121006;27;20130;-83
2021/05/30 20:54:14;;;;;;;5.85;2.95;;;15.10;99.90;;;;;;5115531;27;20066;-83
2021/05/30 20:56:39;;;;;;;5.82;3.08;;;15.00;99.90;;;;;;5125092;27;20050;-83
2021/05/30 20:59:05;;;;;;;6.07;3.08;;;16.90;99.90;;;;;;5124532;27;20129;-83
2021/05/30 21:01:31;;;;;;;6.07;3.20;;;14.90;99.90;;;;;;5124662;27;20054;-83
2021/05/30 21:03:57;;;;;;;8.77;3.00;;;14.80;99.90;;;;;;5141582;27;20076;-82
2021/05/30 21:06:23;;;;;;;5.18;3.30;;;14.70;99.90;;;;;;5125254;27;20499;-82
2021/05/30 21:08:48;;;;;;;7.13;3.58;;;14.60;99.90;;;;;;5119606;27;20062;-82
2021/05/30 21:11:14;;;;;;;7.13;3.30;;;14.60;99.90;;;;;;5125408;27;20047;-81
2021/05/30 21:13:39;;;;;;;8.35;3.20;;;14.50;99.90;;;;;;5125291;27;20043;-83
2021/05/30 21:16:05;;;;;;;7.38;3.50;;;14.40;99.90;;;;;;5125562;27;20334;-83
2021/05/30 21:18:33;;;;;;;6.40;3.50;;;14.40;99.90;;;;;;5125267;27;20095;-82
2021/05/30 21:21:00;;;;;;;8.52;4.00;;;14.20;99.90;;;;;;5126054;27;20559;-81
2021/05/30 21:23:26;;;;;;;7.25;4.22;;;14.20;99.90;;;;;;5125800;27;20051;-81
2021/05/30 21:25:52;;;;;;;6.10;3.63;;;14.10;99.90;;;;;;5124830;27;20110;-83
2021/05/30 21:28:18;;;;;;;7.78;4.03;;;14.00;99.90;;;;;;5125829;27;20077;-80
2021/05/30 21:30:43;;;;;;;7.35;3.80;;;14.00;99.90;;;;;;5126805;27;20062;-81
2021/05/30 21:33:09;;;;;;;8.13;4.07;;;14.00;99.90;;;;;;5126649;27;20039;-83
2021/05/30 21:35:36;;;;;;;8.60;4.35;;;13.90;99.90;;;;;;5126202;27;20070;-81
2021/05/30 21:38:02;;;;;;;11.88;4.18;;;14.00;99.90;;;;;;5125998;27;20082;-82
2021/05/30 21:40:27;;;;;;;8.52;4.28;;;13.90;99.90;;;;;;5125074;27;20060;-83
2021/05/30 21:42:53;;;;;;;7.30;3.92;;;13.80;99.90;;;;;;5126437;27;20134;-83
2021/05/30 21:45:19;;;;;;;7.95;4.05;;;13.80;99.90;;;;;;5126387;27;20062;-83
2021/05/30 21:47:45;;;;;;;6.10;3.22;;;13.70;99.90;;;;;;5126521;27;20031;-82
2021/05/30 21:50:11;;;;;;;4.63;3.20;;;13.60;99.90;;;;;;5126300;27;20049;-82
2021/05/30 21:52:38;;;;;;;6.85;3.78;;;13.60;99.90;;;;;;5125838;27;20035;-83
2021/05/30 21:55:04;;;;;;;8.38;3.80;;;13.60;99.90;;;;;;5145124;27;20475;-82
2021/05/30 21:57:30;;;;;;;5.63;3.45;;;13.50;99.90;;;;;;5127578;27;20134;-82
2021/05/30 21:59:56;;;;;;;7.95;3.65;;;13.40;99.90;;;;;;5126153;27;20063;-83
2021/05/30 22:02:21;;;;;;;7.55;4.38;;;13.30;99.90;;;;;;5126197;27;20144;-82
2021/05/30 22:04:47;;;;;;;8.68;3.80;;;13.30;99.90;;;;;;5126598;27;20103;-83
2021/05/30 22:07:14;;;;;;;9.20;3.90;;;13.20;99.90;;;;;;5126116;27;20088;-83
2021/05/30 22:09:41;;;;;;;6.50;3.85;;;13.20;99.90;;;;;;5121876;27;20035;-82
2021/05/30 22:12:08;;;;;;;6.75;3.53;;;13.30;99.90;;;;;;5114542;28;20044;-83
2021/05/30 22:14:34;;;;;;;8.48;3.80;;;13.30;99.90;;;;;;5106867;28;20119;-83
2021/05/30 22:19:44;;;;;;;10.55;4.00;;;13.20;99.90;;;;;;5124542;28;20066;-81
2021/05/30 22:22:09;;;;;;;8.05;4.10;;;13.20;99.90;;;;;;5106467;28;20040;-81
2021/05/30 22:24:37;;;;;;;5.93;3.92;;;13.10;99.90;;;;;;5105872;28;20431;-84
2021/05/30 22:27:05;;;;;;;7.68;3.83;;;13.10;99.90;;;;;;5105658;28;20099;-80
2021/05/30 22:29:31;;;;;;;10.60;4.43;;;13.00;99.90;;;;;;5106347;28;20093;-82
2021/05/30 22:31:56;;;;;;;5.75;3.67;;;13.00;99.90;;;;;;5106034;28;20032;-82
2021/05/30 22:34:22;;;;;;;7.78;3.95;;;12.90;99.90;;;;;;5106374;28;20134;-81
2021/05/30 22:36:47;;;;;;;7.50;4.10;;;12.80;99.90;;;;;;5103076;28;20054;-82
2021/05/30 22:39:13;;;;;;;7.43;4.28;;;12.80;99.90;;;;;;5102961;28;20051;-83
2021/05/30 22:41:41;;;;;;;7.90;3.85;;;12.70;99.90;;;;;;5103555;28;20558;-81
2021/05/30 22:44:08;;;;;;;8.30;3.97;;;12.70;99.90;;;;;;5103088;28;20040;-83
2021/05/30 22:46:34;;;;;;;6.90;4.32;;;12.60;99.90;;;;;;5103406;28;20054;-81
2021/05/30 22:49:00;;;;;;;7.55;4.10;;;12.50;99.90;;;;;;5103185;28;20036;-83
2021/05/30 22:51:26;;;;;;;8.60;4.72;;;12.50;99.90;;;;;;5103217;28;20048;-81
2021/05/30 22:53:52;;;;;;;9.15;4.50;;;12.50;99.90;;;;;;5105395;28;20077;-82
2021/05/30 22:56:18;;;;;;;7.40;4.38;;;12.50;99.90;;;;;;5104730;28;20126;-82
2021/05/30 22:58:43;;;;;;;11.52;4.80;;;12.40;99.90;;;;;;5105077;28;20048;-81
2021/05/30 23:01:10;;;;;;;9.10;4.38;;;12.30;99.90;;;;;;5104796;28;20040;-83
2021/05/30 23:03:36;;;;;;;11.10;5.22;;;12.30;99.90;;;;;;5105337;28;20052;-82
2021/05/30 23:06:02;;;;;;;9.80;5.07;;;12.30;99.90;;;;;;5104968;28;20047;-83
2021/05/30 23:08:28;;;;;;;7.28;4.38;;;12.20;99.90;;;;;;5104695;28;20048;-82
2021/05/30 23:10:55;;;;;;;6.78;4.38;;;12.80;99.90;;;;;;5104782;28;20054;-82
2021/05/30 23:13:21;;;;;;;7.82;4.32;;;12.10;99.90;;;;;;5105383;28;20421;-83
2021/05/30 23:15:48;;;;;;;9.13;4.18;;;12.10;99.90;;;;;;5109282;28;20044;-83
2021/05/30 23:18:16;;;;;;;11.35;4.95;;;12.10;99.90;;;;;;5109285;28;20063;-83
2021/05/30 23:20:43;;;;;;;8.70;4.95;;;12.00;99.90;;;;;;5109114;28;20039;-83
2021/05/30 23:23:09;;;;;;;8.85;4.68;;;11.90;99.90;;;;;;5109502;28;20062;-83
2021/05/30 23:25:34;;;;;;;8.40;5.00;;;11.90;99.90;;;;;;5108618;28;20043;-82
2021/05/30 23:28:00;;;;;;;12.93;5.43;;;11.90;99.90;;;;;;5109236;28;20099;-83
2021/05/30 23:30:27;;;;;;;9.45;4.85;;;11.90;99.90;;;;;;5109999;28;20046;-83
2021/05/30 23:32:52;;;;;;;13.00;6.03;;;11.90;99.90;;;;;;5108878;28;20061;-82
2021/05/30 23:35:21;;;;;;;11.52;5.65;;;11.90;99.90;;;;;;5108974;28;20039;-83
2021/05/30 23:37:48;;;;;;;10.00;5.80;;;11.90;99.90;;;;;;5126231;28;20131;-83
2021/05/30 23:40:14;;;;;;;11.25;5.63;;;11.90;99.90;;;;;;5108480;28;20036;-83
2021/05/30 23:42:40;;;;;;;12.48;5.88;;;11.90;99.90;;;;;;5108884;28;20031;-83
2021/05/30 23:45:06;;;;;;;11.95;6.43;;;11.90;99.90;;;;;;5108564;28;20116;-83
2021/05/30 23:47:32;;;;;;;16.15;7.28;;;11.80;99.90;;;;;;5108966;28;20047;-82
2021/05/30 23:49:58;;;;;;;12.00;7.00;;;11.80;99.90;;;;;;5110015;28;20039;-83
2021/05/30 23:52:24;;;;;;;12.25;7.13;;;11.80;99.90;;;;;;5109986;28;20039;-83
2021/05/30 23:54:50;;;;;;;11.73;6.57;;;11.90;99.90;;;;;;5109346;28;20067;-82
2021/05/30 23:57:16;;;;;;;9.90;5.60;;;11.90;99.90;;;;;;5108669;28;20049;-83
2021/05/30 23:59:41;;;;;;;7.50;4.72;;;11.90;99.90;;;;;;5108832;28;20040;-83
